createdAt,value
2023-05-10T00:00:46.308Z,33.18
2023-05-10T00:03:13.079Z,33.23
2023-05-10T00:05:40.099Z,33.32
2023-05-10T00:08:06.759Z,33.34
2023-05-10T00:10:33.447Z,33.25
2023-05-10T00:13:00.160Z,33.35
2023-05-10T00:15:26.782Z,33.35
2023-05-10T00:17:55.677Z,33.45
2023-05-10T00:20:22.382Z,33.45
2023-05-10T00:22:49.008Z,33.34
2023-05-10T00:25:15.780Z,33.47
2023-05-10T00:27:42.388Z,33.52
2023-05-10T00:30:09.424Z,33.57
2023-05-10T00:32:36.129Z,33.62
2023-05-10T00:35:02.806Z,33.66
2023-05-10T00:37:29.455Z,33.65
2023-05-10T00:39:56.087Z,33.76
2023-05-10T00:42:25.494Z,33.77
2023-05-10T00:44:52.219Z,33.70
2023-05-10T00:47:18.962Z,33.73
2023-05-10T00:49:45.881Z,33.75
2023-05-10T00:52:12.632Z,33.76
2023-05-10T00:54:39.271Z,33.79
2023-05-10T00:57:05.998Z,33.82
2023-05-10T00:59:32.681Z,33.85
2023-05-10T01:01:59.488Z,33.88
2023-05-10T01:04:29.502Z,33.92
2023-05-10T01:06:56.226Z,33.87
2023-05-10T01:09:23.055Z,33.87
2023-05-10T01:11:49.681Z,33.87
2023-05-10T01:14:16.442Z,33.99
2023-05-10T01:16:43.080Z,33.95
2023-05-10T01:19:39.158Z,34.03
2023-05-10T01:22:33.741Z,33.93
2023-05-10T01:25:18.279Z,33.89
2023-05-10T01:28:06.732Z,33.97
2023-05-10T01:31:00.718Z,34.13
2023-05-10T01:33:43.034Z,34.02
2023-05-10T01:36:28.025Z,34.19
2023-05-10T01:39:01.691Z,34.13
2023-05-10T01:41:56.557Z,34.18
2023-05-10T01:44:32.376Z,34.20
2023-05-10T01:46:59.653Z,34.13
2023-05-10T01:49:32.044Z,34.54
2023-05-10T01:52:05.529Z,34.15
2023-05-10T01:54:32.194Z,34.21
2023-05-10T01:57:04.721Z,34.40
2023-05-10T01:59:32.904Z,34.40
2023-05-10T02:02:00.023Z,34.43
2023-05-10T02:04:29.295Z,34.36
2023-05-10T02:06:56.031Z,34.39
2023-05-10T02:09:22.676Z,34.62
2023-05-10T02:11:49.405Z,34.50
2023-05-10T02:14:16.393Z,34.50
2023-05-10T02:16:43.071Z,34.44
2023-05-10T02:19:10.254Z,34.42
2023-05-10T02:21:37.230Z,34.46
2023-05-10T02:24:04.211Z,34.38
2023-05-10T02:26:30.967Z,34.41
2023-05-10T02:28:57.848Z,34.46
2023-05-10T02:31:24.594Z,34.47
2023-05-10T02:33:51.271Z,34.38
2023-05-10T02:36:18.129Z,34.40
2023-05-10T02:38:45.093Z,34.34
2023-05-10T02:41:11.794Z,34.51
2023-05-10T02:43:38.421Z,34.49
2023-05-10T02:46:05.160Z,34.47
2023-05-10T02:48:31.793Z,34.46
2023-05-10T02:51:02.055Z,34.58
2023-05-10T02:53:32.312Z,34.37
2023-05-10T02:56:01.832Z,34.50
2023-05-10T02:58:28.399Z,34.63
2023-05-10T03:00:55.218Z,34.50
2023-05-10T03:03:22.059Z,34.52
2023-05-10T03:05:48.680Z,34.51
2023-05-10T03:08:15.342Z,34.52
2023-05-10T03:11:27.134Z,34.55
2023-05-10T03:14:03.193Z,34.45
2023-05-10T03:16:48.087Z,34.42
2023-05-10T03:19:23.352Z,34.43
2023-05-10T03:21:52.430Z,34.53
2023-05-10T03:24:21.293Z,34.60
2023-05-10T03:26:48.085Z,34.61
2023-05-10T03:29:15.468Z,34.58
2023-05-10T03:31:42.121Z,34.44
2023-05-10T03:34:11.776Z,34.64
2023-05-10T03:36:38.650Z,34.54
2023-05-10T03:39:05.342Z,34.67
2023-05-10T03:41:32.111Z,34.60
2023-05-10T03:43:58.757Z,34.54
2023-05-10T03:46:27.462Z,34.43
2023-05-10T03:48:54.115Z,34.39
2023-05-10T03:51:21.410Z,34.42
2023-05-10T03:53:47.989Z,34.46
2023-05-10T03:56:14.580Z,34.47
2023-05-10T03:58:41.368Z,34.63
2023-05-10T04:01:07.994Z,34.34
2023-05-10T04:03:36.613Z,34.40
2023-05-10T04:06:03.871Z,34.43
2023-05-10T04:08:30.736Z,34.32
2023-05-10T04:11:10.226Z,34.45
2023-05-10T04:13:36.950Z,34.35
2023-05-10T04:16:03.861Z,34.38
2023-05-10T04:18:30.660Z,34.34
2023-05-10T04:20:57.257Z,34.41
2023-05-10T04:23:24.241Z,34.54
2023-05-10T04:25:50.859Z,34.43
2023-05-10T04:28:17.675Z,34.42
2023-05-10T04:30:47.142Z,34.41
2023-05-10T04:33:13.896Z,34.46
2023-05-10T04:35:41.120Z,34.41
2023-05-10T04:38:08.054Z,34.42
2023-05-10T04:40:35.396Z,34.38
2023-05-10T04:43:02.057Z,34.44
2023-05-10T04:45:28.702Z,34.43
2023-05-10T04:47:55.392Z,34.31
2023-05-10T04:50:22.048Z,34.25
2023-05-10T04:52:48.688Z,34.52
2023-05-10T04:55:15.404Z,34.04
2023-05-10T04:57:42.118Z,34.35
2023-05-10T05:00:09.385Z,34.23
2023-05-10T05:02:36.070Z,34.13
2023-05-10T05:05:02.939Z,34.21
2023-05-10T05:07:29.969Z,34.18
2023-05-10T05:09:56.577Z,34.07
2023-05-10T05:12:23.401Z,34.09
2023-05-10T05:14:50.142Z,34.04
2023-05-10T05:17:17.146Z,34.09
2023-05-10T05:19:43.773Z,34.06
2023-05-10T05:22:10.630Z,34.09
2023-05-10T05:24:40.311Z,33.99
2023-05-10T05:27:07.094Z,33.97
2023-05-10T05:29:33.719Z,34.12
2023-05-10T05:32:00.418Z,34.04
2023-05-10T05:34:27.177Z,34.01
2023-05-10T05:36:53.810Z,34.15
2023-05-10T05:39:20.497Z,34.30
2023-05-10T05:41:47.429Z,34.32
2023-05-10T05:44:14.098Z,34.35
2023-05-10T05:46:40.816Z,34.31
2023-05-10T05:49:07.468Z,34.18
2023-05-10T05:51:34.064Z,34.05
2023-05-10T05:54:00.685Z,34.10
2023-05-10T05:56:27.323Z,33.95
2023-05-10T05:58:54.008Z,33.90
2023-05-10T06:01:20.933Z,33.89
2023-05-10T06:03:48.029Z,33.74
2023-05-10T06:06:15.461Z,33.67
2023-05-10T06:08:44.720Z,33.71
2023-05-10T06:11:11.440Z,33.71
2023-05-10T06:13:38.050Z,33.79
2023-05-10T06:16:04.874Z,34.07
2023-05-10T06:18:31.582Z,33.84
2023-05-10T06:20:58.540Z,33.97
2023-05-10T06:23:26.489Z,34.06
2023-05-10T06:25:53.383Z,34.13
2023-05-10T06:28:19.961Z,34.41
2023-05-10T06:30:49.016Z,34.44
2023-05-10T06:33:17.019Z,34.63
2023-05-10T06:38:28.835Z,35.22
2023-05-10T06:40:55.668Z,35.56
2023-05-10T06:43:22.431Z,35.95
2023-05-10T06:45:49.479Z,36.22
2023-05-10T06:48:16.580Z,36.14
2023-05-10T06:50:45.117Z,35.73
2023-05-10T06:53:13.067Z,35.45
2023-05-10T06:55:40.171Z,35.17
2023-05-10T06:58:07.333Z,35.02
2023-05-10T07:00:34.321Z,34.86
2023-05-10T07:03:01.086Z,34.65
2023-05-10T07:05:29.029Z,34.69
2023-05-10T07:07:55.887Z,34.54
2023-05-10T07:10:22.634Z,34.51
2023-05-10T07:12:49.308Z,34.66
2023-05-10T07:15:17.269Z,34.58
2023-05-10T07:17:45.923Z,34.67
2023-05-10T07:20:13.239Z,34.66
2023-05-10T07:22:39.851Z,34.64
2023-05-10T07:25:07.025Z,34.85
2023-05-10T07:27:33.637Z,34.85
2023-05-10T07:30:00.260Z,34.78
2023-05-10T07:32:26.928Z,34.81
2023-05-10T07:34:53.625Z,34.91
2023-05-10T07:37:20.277Z,34.88
2023-05-10T07:39:46.874Z,35.00
2023-05-10T07:42:13.698Z,34.96
2023-05-10T07:44:40.293Z,35.14
2023-05-10T07:47:08.219Z,35.32
2023-05-10T07:49:34.988Z,35.14
2023-05-10T07:52:01.608Z,35.19
2023-05-10T07:54:28.206Z,35.25
2023-05-10T07:56:54.791Z,35.42
2023-05-10T07:59:21.428Z,35.39
2023-05-10T08:01:48.022Z,35.27
2023-05-10T08:04:14.815Z,35.33
2023-05-10T08:06:41.680Z,35.36
2023-05-10T08:09:08.557Z,35.40
2023-05-10T08:11:35.357Z,35.61
2023-05-10T08:14:04.304Z,35.72
2023-05-10T08:16:30.986Z,35.75
2023-05-10T08:18:57.779Z,35.91
2023-05-10T08:21:24.525Z,35.80
2023-05-10T08:23:51.313Z,35.87
2023-05-10T08:26:18.055Z,36.26
2023-05-10T08:28:46.717Z,36.07
2023-05-10T08:31:13.469Z,36.30
2023-05-10T08:33:41.521Z,36.29
2023-05-10T08:36:09.101Z,36.48
2023-05-10T08:38:35.852Z,36.54
2023-05-10T08:41:02.996Z,36.38
2023-05-10T08:43:33.152Z,36.59
2023-05-10T08:46:04.089Z,36.82
2023-05-10T08:48:31.193Z,36.85
2023-05-10T08:50:59.093Z,36.50
2023-05-10T08:53:27.611Z,36.53
2023-05-10T08:55:54.257Z,36.65
2023-05-10T08:58:21.337Z,36.59
2023-05-10T09:00:49.562Z,36.72
2023-05-10T09:03:16.652Z,36.75
2023-05-10T09:05:43.383Z,36.81
2023-05-10T09:08:10.065Z,36.49
2023-05-10T09:10:36.698Z,36.65
2023-05-10T09:13:03.312Z,36.47
2023-05-10T09:15:29.923Z,36.55
2023-05-10T09:17:57.190Z,36.44
2023-05-10T09:20:23.938Z,36.47
2023-05-10T09:22:50.682Z,36.20
2023-05-10T09:25:17.810Z,36.19
2023-05-10T09:27:48.556Z,35.99
2023-05-10T09:30:26.505Z,36.10
2023-05-10T09:32:53.314Z,36.04
2023-05-10T09:35:29.965Z,35.01
2023-05-10T09:37:58.025Z,34.33
2023-05-10T09:40:25.803Z,34.08
2023-05-10T09:42:55.234Z,34.85
2023-05-10T09:45:22.578Z,34.71
2023-05-10T09:47:51.659Z,35.11
2023-05-10T09:50:18.619Z,34.91
2023-05-10T09:53:01.528Z,34.97
2023-05-10T09:55:37.074Z,34.99
2023-05-10T09:58:03.798Z,35.06
2023-05-10T10:00:35.487Z,34.96
2023-05-10T10:03:02.412Z,35.49
2023-05-10T10:05:36.249Z,35.31
2023-05-10T10:08:06.202Z,35.25
2023-05-10T10:10:33.989Z,35.42
2023-05-10T10:13:00.823Z,35.36
2023-05-10T10:15:29.861Z,35.28
2023-05-10T10:17:56.529Z,35.44
2023-05-10T10:20:23.639Z,35.66
2023-05-10T10:22:50.295Z,35.81
2023-05-10T10:25:18.703Z,35.74
2023-05-10T10:27:54.539Z,35.81
2023-05-10T10:30:28.557Z,35.91
2023-05-10T10:33:36.412Z,36.05
2023-05-10T10:36:04.299Z,36.23
2023-05-10T10:39:01.222Z,36.37
2023-05-10T10:41:38.257Z,36.18
2023-05-10T10:44:23.361Z,36.24
2023-05-10T10:47:13.052Z,36.31
2023-05-10T10:49:39.858Z,36.32
2023-05-10T10:52:22.805Z,36.63
2023-05-10T10:55:10.299Z,36.41
2023-05-10T10:57:55.867Z,36.39
2023-05-10T11:00:32.892Z,36.38
2023-05-10T11:03:09.049Z,36.51
2023-05-10T11:05:37.272Z,36.48
2023-05-10T11:08:23.240Z,36.41
2023-05-10T11:10:53.045Z,36.43
2023-05-10T11:13:44.361Z,36.52
2023-05-10T11:16:17.968Z,36.40
2023-05-10T11:19:04.997Z,36.58
2023-05-10T11:21:32.463Z,36.50
2023-05-10T11:24:06.796Z,36.57
2023-05-10T11:26:37.329Z,36.57
2023-05-10T11:29:05.896Z,36.51
2023-05-10T11:31:32.651Z,36.59
2023-05-10T11:34:00.217Z,36.54
2023-05-10T11:36:44.956Z,36.46
2023-05-10T11:39:12.551Z,36.75
2023-05-10T11:41:39.654Z,36.64
2023-05-10T11:44:10.573Z,36.62
2023-05-10T11:46:37.593Z,36.51
2023-05-10T11:49:08.004Z,36.78
2023-05-10T11:51:37.825Z,36.85
2023-05-10T11:54:09.581Z,36.71
2023-05-10T11:56:36.189Z,36.97
2023-05-10T11:59:03.461Z,37.10
2023-05-10T12:01:30.292Z,36.74
2023-05-10T12:04:01.525Z,36.97
2023-05-10T12:06:33.332Z,36.97
2023-05-10T12:09:00.050Z,37.10
2023-05-10T12:11:28.149Z,36.94
2023-05-10T12:13:56.426Z,36.99
2023-05-10T12:16:27.246Z,36.89
2023-05-10T12:18:55.711Z,36.93
2023-05-10T12:21:22.512Z,36.73
2023-05-10T12:23:53.600Z,36.78
2023-05-10T12:26:23.662Z,37.02
2023-05-10T12:28:50.499Z,36.93
2023-05-10T12:31:17.205Z,37.00
2023-05-10T12:33:44.578Z,37.01
2023-05-10T12:36:12.127Z,37.07
2023-05-10T12:38:44.186Z,36.89
2023-05-10T12:41:12.007Z,36.81
2023-05-10T12:43:39.000Z,36.77
2023-05-10T12:46:06.524Z,36.82
2023-05-10T12:48:34.791Z,36.81
2023-05-10T12:51:02.393Z,36.77
2023-05-10T12:53:29.119Z,36.72
2023-05-10T12:55:56.060Z,36.64
2023-05-10T12:58:34.838Z,36.62
2023-05-10T13:01:02.955Z,36.72
2023-05-10T13:03:29.640Z,36.84
2023-05-10T13:05:56.294Z,36.62
2023-05-10T13:08:22.864Z,36.44
2023-05-10T13:10:49.581Z,36.50
2023-05-10T13:13:16.543Z,36.56
2023-05-10T13:15:43.151Z,36.34
2023-05-10T13:18:09.810Z,36.21
2023-05-10T13:20:36.702Z,36.51
2023-05-10T13:23:03.983Z,36.30
2023-05-10T13:25:31.008Z,35.99
2023-05-10T13:27:57.633Z,35.91
2023-05-10T13:30:24.974Z,36.07
2023-05-10T13:32:51.809Z,35.97
2023-05-10T13:35:18.466Z,35.89
2023-05-10T13:37:45.086Z,35.75
2023-05-10T13:40:11.994Z,35.75
2023-05-10T13:42:38.600Z,35.53
2023-05-10T13:45:05.730Z,35.42
2023-05-10T13:47:32.373Z,35.43
2023-05-10T13:49:59.445Z,35.13
2023-05-10T13:52:26.864Z,35.11
2023-05-10T13:54:55.894Z,35.04
2023-05-10T13:57:23.724Z,35.13
2023-05-10T13:59:50.367Z,35.15
2023-05-10T14:02:17.187Z,35.16
2023-05-10T14:04:43.751Z,35.11
2023-05-10T14:07:10.450Z,35.03
2023-05-10T14:09:37.066Z,35.09
2023-05-10T14:12:03.926Z,34.93
2023-05-10T14:14:30.512Z,34.99
2023-05-10T14:16:57.240Z,34.99
2023-05-10T14:19:23.898Z,35.00
2023-05-10T14:21:50.490Z,34.88
2023-05-10T14:24:17.060Z,34.89
2023-05-10T14:26:43.817Z,34.92
2023-05-10T14:29:12.476Z,34.87
2023-05-10T14:31:39.484Z,34.77
2023-05-10T14:34:06.703Z,34.88
2023-05-10T14:36:33.508Z,34.86
2023-05-10T14:39:00.300Z,34.77
2023-05-10T14:41:26.924Z,34.78
2023-05-10T14:43:53.708Z,34.68
2023-05-10T14:46:20.873Z,34.59
2023-05-10T14:48:47.573Z,34.63
2023-05-10T14:51:14.289Z,34.58
2023-05-10T14:53:43.140Z,34.64
2023-05-10T14:56:09.715Z,34.47
2023-05-10T14:58:36.405Z,34.54
2023-05-10T15:01:02.992Z,34.47
2023-05-10T15:03:30.248Z,34.60
2023-05-10T15:05:58.653Z,34.41
2023-05-10T15:08:28.791Z,34.52
2023-05-10T15:10:56.974Z,34.57
2023-05-10T15:13:23.664Z,34.56
2023-05-10T15:15:52.364Z,34.59
2023-05-10T15:18:19.097Z,34.51
2023-05-10T15:20:45.696Z,34.40
2023-05-10T15:23:12.359Z,34.68
2023-05-10T15:25:38.956Z,34.53
2023-05-10T15:28:05.744Z,34.62
2023-05-10T15:30:32.373Z,34.66
2023-05-10T15:32:59.240Z,34.44
2023-05-10T15:35:26.991Z,34.59
2023-05-10T15:37:53.577Z,34.47
2023-05-10T15:40:20.423Z,34.55
2023-05-10T15:42:47.044Z,34.52
2023-05-10T15:45:13.647Z,34.56
2023-05-10T15:47:40.636Z,34.42
2023-05-10T15:50:07.825Z,34.51
2023-05-10T15:52:34.884Z,34.52
2023-05-10T15:55:01.513Z,34.43
2023-05-10T15:57:28.132Z,34.50
2023-05-10T15:59:56.882Z,34.47
2023-05-10T16:02:23.638Z,34.49
2023-05-10T16:04:50.345Z,34.55
2023-05-10T16:07:16.922Z,34.68
2023-05-10T16:09:46.348Z,34.64
2023-05-10T16:12:12.921Z,34.71
2023-05-10T16:14:39.504Z,34.71
2023-05-10T16:17:06.349Z,34.59
2023-05-10T16:19:33.221Z,34.57
2023-05-10T16:21:59.805Z,34.61
2023-05-10T16:24:26.476Z,34.53
2023-05-10T16:26:53.187Z,34.33
2023-05-10T16:29:19.846Z,34.39
2023-05-10T16:31:46.989Z,34.54
2023-05-10T16:34:13.679Z,34.61
2023-05-10T16:36:40.451Z,34.61
2023-05-10T16:39:07.744Z,34.62
2023-05-10T16:41:34.663Z,34.72
2023-05-10T16:44:01.889Z,34.57
2023-05-10T16:46:28.537Z,34.47
2023-05-10T16:48:55.200Z,34.55
2023-05-10T16:51:21.844Z,34.50
2023-05-10T16:53:48.493Z,34.66
2023-05-10T16:56:17.698Z,34.45
2023-05-10T16:58:44.473Z,34.60
2023-05-10T17:01:11.108Z,34.52
2023-05-10T17:03:37.937Z,34.78
2023-05-10T17:06:05.969Z,34.70
2023-05-10T17:08:32.977Z,34.55
2023-05-10T17:11:03.874Z,34.65
2023-05-10T17:13:30.671Z,34.54
2023-05-10T17:15:57.460Z,34.48
2023-05-10T17:18:24.184Z,34.39
2023-05-10T17:20:50.841Z,34.32
2023-05-10T17:23:17.589Z,34.27
2023-05-10T17:25:44.320Z,34.29
2023-05-10T17:28:11.017Z,34.26
2023-05-10T17:30:37.626Z,34.20
2023-05-10T17:33:04.975Z,34.05
2023-05-10T17:35:31.976Z,34.02
2023-05-10T17:37:58.665Z,33.94
2023-05-10T17:40:25.573Z,33.90
2023-05-10T17:42:52.363Z,33.82
2023-05-10T17:45:19.245Z,33.82
2023-05-10T17:47:46.382Z,33.73
2023-05-10T17:50:13.025Z,33.83
2023-05-10T17:52:39.644Z,33.83
2023-05-10T17:55:06.921Z,33.84
2023-05-10T17:57:33.698Z,33.80
2023-05-10T18:00:04.512Z,33.74
2023-05-10T18:02:31.155Z,33.79
2023-05-10T18:05:00.052Z,33.90
2023-05-10T18:07:27.198Z,33.84
2023-05-10T18:09:53.820Z,33.83
2023-05-10T18:12:20.440Z,33.89
2023-05-10T18:14:47.169Z,33.92
2023-05-10T18:17:13.804Z,33.86
2023-05-10T18:19:40.753Z,33.95
2023-05-10T18:22:10.519Z,33.97
2023-05-10T18:24:39.484Z,33.91
2023-05-10T18:27:07.995Z,33.95
2023-05-10T18:29:34.756Z,33.89
2023-05-10T18:32:01.421Z,33.94
2023-05-10T18:34:28.797Z,33.94
2023-05-10T18:36:55.542Z,34.03
2023-05-10T18:39:22.344Z,33.98
2023-05-10T18:41:50.240Z,33.90
2023-05-10T18:44:16.969Z,33.93
2023-05-10T18:46:43.681Z,33.88
2023-05-10T18:49:10.295Z,33.81
2023-05-10T18:51:36.876Z,33.84
2023-05-10T18:54:03.605Z,33.79
2023-05-10T18:56:30.459Z,33.89
2023-05-10T18:58:57.193Z,33.81
2023-05-10T19:01:23.875Z,33.78
2023-05-10T19:03:50.553Z,33.76
2023-05-10T19:06:17.149Z,33.81
2023-05-10T19:08:43.802Z,33.81
2023-05-10T19:11:13.049Z,33.75
2023-05-10T19:13:39.637Z,33.82
2023-05-10T19:16:10.556Z,33.73
2023-05-10T19:18:38.375Z,33.80
2023-05-10T19:21:10.927Z,33.86
2023-05-10T19:23:39.036Z,33.94
2023-05-10T19:26:05.898Z,33.89
2023-05-10T19:28:32.523Z,33.84
2023-05-10T19:31:02.151Z,33.93
2023-05-10T19:33:28.852Z,33.94
2023-05-10T19:35:58.252Z,33.93
2023-05-10T19:38:25.105Z,34.11
2023-05-10T19:40:57.721Z,33.95
2023-05-10T19:43:27.733Z,34.00
2023-05-10T19:45:54.886Z,33.99
2023-05-10T19:48:21.639Z,34.14
2023-05-10T19:50:48.285Z,34.07
2023-05-10T19:53:14.914Z,34.12
2023-05-10T19:55:41.689Z,34.10
2023-05-10T19:58:08.363Z,34.07
2023-05-10T20:00:35.075Z,34.00
2023-05-10T20:03:02.166Z,34.17
2023-05-10T20:05:29.057Z,34.10
2023-05-10T20:07:55.755Z,34.19
2023-05-10T20:10:22.999Z,34.11
2023-05-10T20:12:53.893Z,34.05
2023-05-10T20:15:21.907Z,34.15
2023-05-10T20:17:49.385Z,34.17
2023-05-10T20:20:16.657Z,34.20
2023-05-10T20:22:44.314Z,34.16
2023-05-10T20:25:11.119Z,34.12
2023-05-10T20:27:37.700Z,34.18
2023-05-10T20:30:04.981Z,34.12
2023-05-10T20:32:31.992Z,34.23
2023-05-10T20:34:58.615Z,34.19
2023-05-10T20:37:25.324Z,34.33
2023-05-10T20:39:51.910Z,34.23
2023-05-10T20:42:18.543Z,34.27
2023-05-10T20:44:45.131Z,34.27
2023-05-10T20:47:11.749Z,34.16
2023-05-10T20:49:38.461Z,34.28
2023-05-10T20:52:05.675Z,34.26
2023-05-10T20:54:32.277Z,34.34
2023-05-10T20:56:59.363Z,34.23
2023-05-10T20:59:25.967Z,34.19
2023-05-10T21:01:55.017Z,34.25
2023-05-10T21:04:21.844Z,34.33
2023-05-10T21:06:48.474Z,34.40
2023-05-10T21:09:15.094Z,34.24
2023-05-10T21:11:41.773Z,34.37
2023-05-10T21:14:08.688Z,34.30
2023-05-10T21:16:35.469Z,34.35
2023-05-10T21:19:02.417Z,34.37
2023-05-10T21:21:29.374Z,34.32
2023-05-10T21:23:56.080Z,34.30
2023-05-10T21:26:23.348Z,34.24
2023-05-10T21:28:49.999Z,34.34
2023-05-10T21:31:16.958Z,34.39
2023-05-10T21:33:43.677Z,34.38
2023-05-10T21:36:10.306Z,34.22
2023-05-10T21:38:36.966Z,34.37
2023-05-10T21:41:07.140Z,34.29
2023-05-10T21:43:33.932Z,34.25
2023-05-10T21:46:01.062Z,34.23
2023-05-10T21:48:29.797Z,34.27
2023-05-10T21:50:56.501Z,34.40
2023-05-10T21:53:23.102Z,34.19
2023-05-10T21:55:49.694Z,33.95
2023-05-10T21:58:16.282Z,33.82
2023-05-10T22:00:43.378Z,33.53
2023-05-10T22:03:10.101Z,33.82
2023-05-10T22:05:36.841Z,33.64
2023-05-10T22:08:03.596Z,33.62
2023-05-10T22:10:30.460Z,33.61
2023-05-10T22:12:57.422Z,33.53
2023-05-10T22:15:24.129Z,33.27
2023-05-10T22:17:50.950Z,33.34
2023-05-10T22:20:17.958Z,33.25
2023-05-10T22:22:45.355Z,33.31
2023-05-10T22:25:11.950Z,33.21
2023-05-10T22:27:38.550Z,33.07
2023-05-10T22:30:06.941Z,33.25
2023-05-10T22:32:33.631Z,33.21
2023-05-10T22:35:00.265Z,33.14
2023-05-10T22:37:26.969Z,33.10
2023-05-10T22:39:53.770Z,33.04
2023-05-10T22:42:20.497Z,33.22
2023-05-10T22:44:47.161Z,33.07
2023-05-10T22:47:13.767Z,33.30
2023-05-10T22:49:40.375Z,33.19
2023-05-10T22:52:06.976Z,33.10
2023-05-10T22:54:36.011Z,33.13
2023-05-10T22:57:02.911Z,33.10
2023-05-10T22:59:29.550Z,33.09
2023-05-10T23:01:56.170Z,33.35
2023-05-10T23:04:25.179Z,33.33
2023-05-10T23:06:51.852Z,33.21
2023-05-10T23:09:18.714Z,33.22
2023-05-10T23:11:45.294Z,33.25
2023-05-10T23:14:11.973Z,33.07
2023-05-10T23:16:38.726Z,33.18
2023-05-10T23:19:05.450Z,33.37
2023-05-10T23:21:32.312Z,33.25
2023-05-10T23:23:59.088Z,33.47
2023-05-10T23:26:25.755Z,33.41
2023-05-10T23:28:52.385Z,33.50
2023-05-10T23:31:19.127Z,33.61
2023-05-10T23:33:45.924Z,33.50
2023-05-10T23:36:12.656Z,33.51
2023-05-10T23:38:39.541Z,33.70
2023-05-10T23:41:06.223Z,33.65
2023-05-10T23:43:32.878Z,33.70
2023-05-10T23:45:59.644Z,33.69
2023-05-10T23:48:26.351Z,33.54
2023-05-10T23:50:53.081Z,33.64
2023-05-10T23:53:19.662Z,33.54
2023-05-10T23:55:46.488Z,33.41
2023-05-10T23:58:13.055Z,33.49
